createdAt,value
2017-07-22T00:00:54.694Z,0
2017-07-22T00:02:04.650Z,0
2017-07-22T00:03:14.607Z,0
2017-07-22T00:04:24.871Z,0
2017-07-22T00:05:35.142Z,0
2017-07-22T00:06:45.412Z,0
2017-07-22T00:07:55.677Z,0
2017-07-22T00:09:05.947Z,0
2017-07-22T00:10:15.904Z,0
2017-07-22T00:11:26.179Z,0
2017-07-22T00:12:36.451Z,0
2017-07-22T00:13:46.718Z,0
2017-07-22T00:14:56.670Z,0
2017-07-22T00:16:10.095Z,0
2017-07-22T00:17:20.365Z,0
2017-07-22T00:18:30.638Z,0
2017-07-22T00:19:40.284Z,0
2017-07-22T00:20:50.239Z,0
2017-07-22T00:22:00.192Z,0
2017-07-22T00:23:10.463Z,0
2017-07-22T00:24:20.757Z,0
2017-07-22T00:25:31.052Z,0
2017-07-22T00:26:41.316Z,0
2017-07-22T00:27:51.589Z,0
2017-07-22T00:29:01.866Z,0
2017-07-22T00:30:11.821Z,0
2017-07-22T00:31:22.088Z,0
2017-07-22T00:32:32.045Z,0
2017-07-22T00:33:41.998Z,0
2017-07-22T00:34:52.266Z,0
2017-07-22T00:36:02.530Z,0
2017-07-22T00:37:12.509Z,0
2017-07-22T00:38:22.838Z,0
2017-07-22T00:39:33.108Z,0
2017-07-22T00:40:43.376Z,0
2017-07-22T00:41:53.648Z,0
2017-07-22T00:43:03.920Z,0
2017-07-22T00:44:14.201Z,0
2017-07-22T00:45:24.510Z,0
2017-07-22T00:46:34.794Z,0
2017-07-22T00:47:45.084Z,0
2017-07-22T00:48:55.349Z,0
2017-07-22T00:50:04.995Z,0
2017-07-22T00:51:15.269Z,0
2017-07-22T00:52:25.220Z,0
2017-07-22T00:53:35.173Z,0
2017-07-22T00:54:45.439Z,0
2017-07-22T00:55:55.704Z,0
2017-07-22T00:57:05.668Z,0
2017-07-22T00:58:15.936Z,0
2017-07-22T00:59:26.207Z,0
2017-07-22T01:00:36.473Z,0
2017-07-22T01:01:46.114Z,0
2017-07-22T01:02:56.386Z,0
2017-07-22T01:04:06.660Z,0
2017-07-22T01:05:16.616Z,0
2017-07-22T01:06:26.891Z,0
2017-07-22T01:07:37.162Z,0
2017-07-22T01:08:47.426Z,0
2017-07-22T01:09:57.694Z,0
2017-07-22T01:11:07.966Z,0
2017-07-22T01:12:17.922Z,0
2017-07-22T01:13:28.207Z,0
2017-07-22T01:14:38.165Z,0
2017-07-22T01:15:48.430Z,0
2017-07-22T01:16:58.703Z,0
2017-07-22T01:18:08.965Z,0
2017-07-22T01:19:18.921Z,0
2017-07-22T01:20:29.218Z,0
2017-07-22T01:21:39.489Z,4
2017-07-22T01:22:49.764Z,4
2017-07-22T01:23:59.723Z,4
2017-07-22T01:25:09.991Z,4
2017-07-22T01:26:20.262Z,0
2017-07-22T01:27:30.531Z,0
2017-07-22T01:28:40.487Z,0
2017-07-22T01:29:50.446Z,4
2017-07-22T01:31:00.724Z,4
2017-07-22T01:32:10.990Z,4
2017-07-22T01:33:20.943Z,0
2017-07-22T01:34:30.897Z,4
2017-07-22T01:35:41.165Z,4
2017-07-22T01:36:51.120Z,4
2017-07-22T01:38:01.393Z,4
2017-07-22T01:39:11.660Z,4
2017-07-22T01:40:21.933Z,4
2017-07-22T01:41:32.198Z,8
2017-07-22T01:42:42.474Z,4
2017-07-22T01:43:52.744Z,8
2017-07-22T01:45:03.019Z,4
2017-07-22T01:46:13.294Z,8
2017-07-22T01:47:23.556Z,12
2017-07-22T01:48:33.516Z,8
2017-07-22T01:49:43.786Z,8
2017-07-22T01:50:54.081Z,12
2017-07-22T01:52:04.347Z,12
2017-07-22T01:53:14.617Z,12
2017-07-22T01:54:24.885Z,16
2017-07-22T01:55:35.145Z,16
2017-07-22T01:56:45.099Z,16
2017-07-22T01:57:55.048Z,20
2017-07-22T01:59:05.316Z,20
2017-07-22T02:00:15.270Z,20
2017-07-22T02:01:25.218Z,24
2017-07-22T02:02:35.485Z,24
2017-07-22T02:03:45.753Z,28
2017-07-22T02:04:56.020Z,28
2017-07-22T02:06:06.284Z,32
2017-07-22T02:07:16.556Z,32
2017-07-22T02:08:26.524Z,36
2017-07-22T02:09:36.796Z,40
2017-07-22T02:10:47.067Z,40
2017-07-22T02:11:56.711Z,48
2017-07-22T02:13:06.982Z,52
2017-07-22T02:14:17.268Z,56
2017-07-22T02:15:27.225Z,60
2017-07-22T02:16:37.492Z,64
2017-07-22T02:17:47.445Z,68
2017-07-22T02:18:57.713Z,72
2017-07-22T02:20:07.697Z,76
2017-07-22T02:21:18.002Z,84
2017-07-22T02:22:28.268Z,88
2017-07-22T02:23:38.232Z,92
2017-07-22T02:24:48.185Z,100
2017-07-22T02:25:58.454Z,108
2017-07-22T02:27:08.722Z,112
2017-07-22T02:28:18.678Z,124
2017-07-22T02:29:28.968Z,136
2017-07-22T02:30:39.239Z,144
2017-07-22T02:31:48.893Z,160
2017-07-22T02:32:59.163Z,172
2017-07-22T02:34:09.437Z,180
2017-07-22T02:35:19.407Z,192
2017-07-22T02:36:29.755Z,208
2017-07-22T02:37:39.714Z,220
2017-07-22T02:38:49.671Z,232
2017-07-22T02:39:59.941Z,248
2017-07-22T02:41:10.215Z,268
2017-07-22T02:42:20.507Z,288
2017-07-22T02:43:30.778Z,308
2017-07-22T02:44:41.057Z,332
2017-07-22T02:45:51.012Z,356
2017-07-22T02:47:01.281Z,380
2017-07-22T02:48:11.238Z,404
2017-07-22T02:49:21.525Z,428
2017-07-22T02:50:31.802Z,456
2017-07-22T02:51:42.078Z,480
2017-07-22T02:52:52.037Z,504
2017-07-22T02:54:02.305Z,532
2017-07-22T02:55:12.580Z,560
2017-07-22T02:56:22.852Z,592
2017-07-22T02:57:33.135Z,624
2017-07-22T02:58:43.403Z,664
2017-07-22T02:59:53.039Z,700
2017-07-22T03:01:03.313Z,732
2017-07-22T03:02:13.584Z,756
2017-07-22T03:03:23.857Z,788
2017-07-22T03:04:34.125Z,816
2017-07-22T03:05:44.399Z,844
2017-07-22T03:06:54.676Z,880
2017-07-22T03:08:04.953Z,908
2017-07-22T03:09:15.231Z,936
2017-07-22T03:10:25.504Z,968
2017-07-22T03:11:35.776Z,996
2017-07-22T03:12:46.042Z,1024
2017-07-22T03:13:56.312Z,1052
2017-07-22T03:15:06.589Z,1072
2017-07-22T03:16:16.861Z,1096
2017-07-22T03:17:27.146Z,1116
2017-07-22T03:18:37.417Z,1144
2017-07-22T03:19:47.680Z,1176
2017-07-22T03:20:57.649Z,1208
2017-07-22T03:22:07.916Z,1236
2017-07-22T03:23:18.185Z,1268
2017-07-22T03:24:28.453Z,1304
2017-07-22T03:25:38.731Z,1344
2017-07-22T03:26:48.688Z,1384
2017-07-22T03:27:58.649Z,1408
2017-07-22T03:29:08.922Z,1432
2017-07-22T03:30:19.203Z,1448
2017-07-22T03:31:29.479Z,1468
2017-07-22T03:32:39.751Z,1480
2017-07-22T03:33:50.036Z,1492
2017-07-22T03:35:00.305Z,1500
2017-07-22T03:36:10.263Z,1512
2017-07-22T03:37:20.536Z,1536
2017-07-22T03:38:30.809Z,1560
2017-07-22T03:39:41.075Z,1580
2017-07-22T03:40:51.350Z,1608
2017-07-22T03:42:01.621Z,1640
2017-07-22T03:43:11.266Z,1680
2017-07-22T03:44:21.551Z,1712
2017-07-22T03:45:31.821Z,1736
2017-07-22T03:46:42.084Z,1764
2017-07-22T03:47:52.360Z,1776
2017-07-22T03:49:02.313Z,1788
2017-07-22T03:50:12.597Z,1808
2017-07-22T03:51:22.547Z,1828
2017-07-22T03:52:32.815Z,1844
2017-07-22T03:53:43.128Z,1856
2017-07-22T03:54:53.085Z,1868
2017-07-22T03:56:03.359Z,1888
2017-07-22T03:57:13.630Z,1908
2017-07-22T03:58:23.893Z,1920
2017-07-22T03:59:34.159Z,1936
2017-07-22T04:00:44.112Z,1940
2017-07-22T04:01:54.089Z,1948
2017-07-22T04:03:04.360Z,1956
2017-07-22T04:04:14.635Z,1964
2017-07-22T04:05:24.594Z,1980
2017-07-22T04:06:34.861Z,1984
2017-07-22T04:07:45.125Z,1992
2017-07-22T04:08:54.765Z,2000
2017-07-22T04:10:04.724Z,2012
2017-07-22T04:11:15.000Z,2020
2017-07-22T04:12:25.265Z,2032
2017-07-22T04:13:35.222Z,2044
2017-07-22T04:14:45.491Z,2056
2017-07-22T04:15:55.440Z,2072
2017-07-22T04:17:05.396Z,2088
2017-07-22T04:18:15.669Z,2096
2017-07-22T04:19:25.937Z,2116
2017-07-22T04:20:36.204Z,2128
2017-07-22T04:21:46.483Z,2144
2017-07-22T04:22:56.770Z,2160
2017-07-22T04:24:06.723Z,2172
2017-07-22T04:25:16.999Z,2180
2017-07-22T04:26:27.272Z,2196
2017-07-22T04:27:37.544Z,2212
2017-07-22T04:28:47.812Z,2220
2017-07-22T04:29:58.082Z,2236
2017-07-22T04:31:08.352Z,2248
2017-07-22T04:32:18.628Z,2260
2017-07-22T04:33:28.909Z,2268
2017-07-22T04:34:38.879Z,2276
2017-07-22T04:35:49.143Z,2300
2017-07-22T04:36:59.409Z,2292
2017-07-22T04:38:09.678Z,2316
2017-07-22T04:39:19.648Z,2332
2017-07-22T04:40:29.605Z,2340
2017-07-22T04:41:39.875Z,2356
2017-07-22T04:42:49.830Z,2368
2017-07-22T04:44:00.101Z,2380
2017-07-22T04:45:10.372Z,2388
2017-07-22T04:46:20.330Z,2400
2017-07-22T04:47:30.291Z,2412
2017-07-22T04:48:40.559Z,2420
2017-07-22T04:49:50.833Z,2432
2017-07-22T04:51:01.102Z,2444
2017-07-22T04:52:11.377Z,2456
2017-07-22T04:53:21.642Z,2464
2017-07-22T04:54:31.597Z,2476
2017-07-22T04:55:41.866Z,2484
2017-07-22T04:56:52.169Z,2492
2017-07-22T04:58:02.457Z,2504
2017-07-22T04:59:12.725Z,2512
2017-07-22T05:00:22.998Z,2520
2017-07-22T05:01:33.267Z,2532
2017-07-22T05:02:43.533Z,2540
2017-07-22T05:03:53.802Z,2552
2017-07-22T05:05:04.078Z,2556
2017-07-22T05:06:14.352Z,2564
2017-07-22T05:07:24.623Z,2572
2017-07-22T05:08:34.264Z,2580
2017-07-22T05:09:44.535Z,2592
2017-07-22T05:10:54.808Z,2600
2017-07-22T05:12:05.080Z,2612
2017-07-22T05:13:15.353Z,2616
2017-07-22T05:14:25.628Z,2624
2017-07-22T05:15:35.898Z,2628
2017-07-22T05:16:46.167Z,2636
2017-07-22T05:17:56.126Z,2644
2017-07-22T05:19:06.399Z,2648
2017-07-22T05:20:16.673Z,2656
2017-07-22T05:21:26.949Z,2664
2017-07-22T05:22:37.221Z,2672
2017-07-22T05:23:47.182Z,2676
2017-07-22T05:24:57.451Z,2684
2017-07-22T05:26:07.092Z,2692
2017-07-22T05:27:17.361Z,2700
2017-07-22T05:28:27.328Z,2704
2017-07-22T05:29:37.602Z,2708
2017-07-22T05:30:47.563Z,2716
2017-07-22T05:31:57.832Z,2724
2017-07-22T05:33:07.791Z,2728
2017-07-22T05:34:18.075Z,2732
2017-07-22T05:35:28.344Z,2736
2017-07-22T05:36:38.613Z,2744
2017-07-22T05:37:48.898Z,2752
2017-07-22T05:38:59.174Z,2756
2017-07-22T05:40:09.456Z,2760
2017-07-22T05:41:19.408Z,2768
2017-07-22T05:42:29.682Z,2772
2017-07-22T05:43:39.980Z,2776
2017-07-22T05:44:50.249Z,2780
2017-07-22T05:46:00.524Z,2792
2017-07-22T05:47:10.482Z,2788
2017-07-22T05:48:20.750Z,2796
2017-07-22T05:49:31.017Z,2800
2017-07-22T05:50:41.297Z,2804
2017-07-22T05:51:51.571Z,2812
2017-07-22T05:53:01.533Z,2820
2017-07-22T05:54:11.809Z,2824
2017-07-22T05:55:21.762Z,2828
2017-07-22T05:56:32.038Z,2832
2017-07-22T05:57:42.315Z,2840
2017-07-22T05:58:52.586Z,2844
2017-07-22T06:00:02.857Z,2852
2017-07-22T06:01:12.813Z,2856
2017-07-22T06:02:22.771Z,2860
2017-07-22T06:03:32.724Z,2864
2017-07-22T06:04:42.992Z,2868
2017-07-22T06:05:52.958Z,2872
2017-07-22T06:07:03.234Z,2876
2017-07-22T06:08:13.508Z,2884
2017-07-22T06:09:23.781Z,2888
2017-07-22T06:10:34.054Z,2892
2017-07-22T06:11:44.322Z,2892
2017-07-22T06:12:54.278Z,2904
2017-07-22T06:14:04.237Z,2904
2017-07-22T06:15:14.510Z,2908
2017-07-22T06:16:24.786Z,2912
2017-07-22T06:17:34.746Z,2916
2017-07-22T06:18:44.706Z,2920
2017-07-22T06:19:54.992Z,2924
2017-07-22T06:21:05.286Z,2928
2017-07-22T06:22:15.559Z,2932
2017-07-22T06:23:25.841Z,2936
2017-07-22T06:24:36.114Z,2940
2017-07-22T06:25:46.383Z,2952
2017-07-22T06:26:56.655Z,2956
2017-07-22T06:28:06.940Z,2960
2017-07-22T06:29:16.907Z,2964
2017-07-22T06:30:27.172Z,2968
2017-07-22T06:31:37.459Z,2976
2017-07-22T06:32:47.735Z,2984
2017-07-22T06:33:57.379Z,2988
2017-07-22T06:35:07.339Z,2992
2017-07-22T06:36:17.643Z,3000
2017-07-22T06:37:27.606Z,3008
2017-07-22T06:38:37.878Z,3012
2017-07-22T06:39:47.840Z,3020
2017-07-22T06:40:58.113Z,3024
2017-07-22T06:42:08.069Z,3036
2017-07-22T06:43:17.720Z,3044
2017-07-22T06:44:27.994Z,3052
2017-07-22T06:45:37.949Z,3056
2017-07-22T06:46:48.222Z,3060
2017-07-22T06:47:58.492Z,3072
2017-07-22T06:49:08.763Z,3080
2017-07-22T06:50:19.037Z,3084
2017-07-22T06:51:29.308Z,3092
2017-07-22T06:52:39.578Z,3100
2017-07-22T06:53:49.548Z,3108
2017-07-22T06:54:59.825Z,3112
2017-07-22T06:56:10.097Z,3120
2017-07-22T06:57:20.372Z,3124
2017-07-22T06:58:30.652Z,3136
2017-07-22T06:59:40.919Z,3148
2017-07-22T07:00:51.188Z,3156
2017-07-22T07:02:01.149Z,3164
2017-07-22T07:03:11.424Z,3172
2017-07-22T07:04:21.375Z,3180
2017-07-22T07:05:31.331Z,3184
2017-07-22T07:06:41.605Z,3196
2017-07-22T07:07:51.880Z,3204
2017-07-22T07:09:02.159Z,3212
2017-07-22T07:10:12.124Z,3224
2017-07-22T07:11:22.399Z,3236
2017-07-22T07:12:32.361Z,3248
2017-07-22T07:13:42.014Z,3256
2017-07-22T07:14:52.287Z,3268
2017-07-22T07:16:02.556Z,3280
2017-07-22T07:17:12.518Z,3284
2017-07-22T07:18:22.792Z,3292
2017-07-22T07:19:33.068Z,3300
2017-07-22T07:20:43.342Z,3316
2017-07-22T07:21:53.614Z,3328
2017-07-22T07:23:03.886Z,3344
2017-07-22T07:24:14.154Z,3352
2017-07-22T07:25:24.112Z,3360
2017-07-22T07:26:34.383Z,3376
2017-07-22T07:27:44.035Z,3384
2017-07-22T07:28:53.676Z,3416
2017-07-22T07:30:03.947Z,3440
2017-07-22T07:31:14.249Z,3452
2017-07-22T07:32:24.206Z,3464
2017-07-22T07:33:34.171Z,3476
2017-07-22T07:34:44.151Z,3492
2017-07-22T07:35:54.108Z,3496
2017-07-22T07:37:03.755Z,3496
2017-07-22T07:38:14.026Z,3504
2017-07-22T07:39:24.297Z,3516
2017-07-22T07:40:34.575Z,3516
2017-07-22T07:41:44.851Z,3520
2017-07-22T07:42:55.117Z,3536
2017-07-22T07:44:05.072Z,3552
2017-07-22T07:45:15.349Z,3568
2017-07-22T07:46:25.623Z,3576
2017-07-22T07:47:35.581Z,3576
2017-07-22T07:48:45.853Z,3584
2017-07-22T07:49:56.126Z,3588
2017-07-22T07:51:05.772Z,3600
2017-07-22T07:52:15.731Z,3608
2017-07-22T07:53:25.688Z,3632
2017-07-22T07:54:35.960Z,3644
2017-07-22T07:55:46.239Z,3652
2017-07-22T07:56:56.513Z,3660
2017-07-22T07:58:06.786Z,3668
2017-07-22T07:59:17.070Z,3680
2017-07-22T08:00:27.037Z,3700
2017-07-22T08:01:37.312Z,3716
2017-07-22T08:02:47.589Z,3748
2017-07-22T08:03:57.544Z,3800
2017-07-22T08:05:07.815Z,3868
2017-07-22T08:06:18.089Z,3992
2017-07-22T08:07:28.358Z,4168
2017-07-22T08:08:38.641Z,4412
2017-07-22T08:09:48.914Z,4732
2017-07-22T08:10:59.186Z,4868
2017-07-22T08:12:09.147Z,4720
2017-07-22T08:13:19.426Z,4208
2017-07-22T08:14:29.711Z,4088
2017-07-22T08:15:39.675Z,4164
2017-07-22T08:16:49.948Z,4228
2017-07-22T08:18:00.225Z,4156
2017-07-22T08:19:10.498Z,4144
2017-07-22T08:20:20.768Z,4272
2017-07-22T08:21:30.726Z,4144
2017-07-22T08:22:40.388Z,4228
2017-07-22T08:23:50.676Z,4300
2017-07-22T08:25:01.014Z,4296
2017-07-22T08:26:11.290Z,4252
2017-07-22T08:27:21.570Z,4104
2017-07-22T08:28:31.851Z,4032
2017-07-22T08:29:42.125Z,4084
2017-07-22T08:30:52.095Z,4096
2017-07-22T08:32:02.050Z,4096
2017-07-22T08:33:12.321Z,4180
2017-07-22T08:34:22.299Z,4616
2017-07-22T08:35:32.580Z,4884
2017-07-22T08:36:42.849Z,4156
2017-07-22T08:37:53.124Z,4096
2017-07-22T08:39:03.088Z,4108
2017-07-22T08:40:13.047Z,4136
2017-07-22T08:41:23.317Z,4192
2017-07-22T08:42:33.589Z,4272
2017-07-22T08:43:43.547Z,4444
2017-07-22T08:44:53.506Z,4560
2017-07-22T08:46:03.782Z,4672
2017-07-22T08:47:14.075Z,4832
2017-07-22T08:48:24.034Z,5152
2017-07-22T08:49:33.994Z,5580
2017-07-22T08:50:44.277Z,5548
2017-07-22T08:51:54.563Z,5164
2017-07-22T08:53:04.844Z,5208
2017-07-22T08:54:15.123Z,4764
2017-07-22T08:55:25.400Z,5016
2017-07-22T08:56:35.675Z,5640
2017-07-22T08:57:45.948Z,6420
2017-07-22T08:58:56.224Z,6508
2017-07-22T09:00:06.520Z,5688
2017-07-22T09:01:16.168Z,5656
2017-07-22T09:02:26.127Z,5804
2017-07-22T09:03:36.100Z,6416
2017-07-22T09:04:46.385Z,6296
2017-07-22T09:05:56.656Z,6952
2017-07-22T09:07:06.303Z,6004
2017-07-22T09:08:16.262Z,6508
2017-07-22T09:09:26.538Z,5840
2017-07-22T09:10:36.819Z,6160
2017-07-22T09:11:47.092Z,6872
2017-07-22T09:12:57.369Z,7348
2017-07-22T09:14:07.952Z,8364
2017-07-22T09:15:18.241Z,6456
2017-07-22T09:16:28.540Z,5908
2017-07-22T09:17:38.503Z,6644
2017-07-22T09:18:48.778Z,7128
2017-07-22T09:19:59.077Z,7392
2017-07-22T09:21:09.350Z,7160
2017-07-22T09:22:19.634Z,6748
2017-07-22T09:23:29.906Z,6200
2017-07-22T09:24:39.564Z,6400
2017-07-22T09:25:49.833Z,6376
2017-07-22T09:27:00.172Z,5968
2017-07-22T09:28:10.474Z,4924
2017-07-22T09:29:20.749Z,4776
2017-07-22T09:30:31.022Z,5732
2017-07-22T09:31:41.296Z,5872
2017-07-22T09:32:51.572Z,5668
2017-07-22T09:34:01.530Z,5332
2017-07-22T09:35:11.201Z,5056
2017-07-22T09:36:21.474Z,4952
2017-07-22T09:37:31.126Z,4984
2017-07-22T09:38:41.402Z,5076
2017-07-22T09:39:51.674Z,5288
2017-07-22T09:41:01.952Z,5476
2017-07-22T09:42:12.228Z,5704
2017-07-22T09:43:22.648Z,6008
2017-07-22T09:44:32.925Z,6468
2017-07-22T09:45:43.204Z,6332
2017-07-22T09:46:53.477Z,6284
2017-07-22T09:48:03.438Z,6916
2017-07-22T09:49:13.710Z,7256
2017-07-22T09:50:23.992Z,7412
2017-07-22T09:51:33.951Z,7144
2017-07-22T09:52:43.916Z,6752
2017-07-22T09:53:54.187Z,6532
2017-07-22T09:55:04.148Z,6272
2017-07-22T09:56:13.808Z,6032
2017-07-22T09:57:24.081Z,5980
2017-07-22T09:58:34.362Z,6008
2017-07-22T09:59:44.322Z,6276
2017-07-22T10:00:54.599Z,6892
2017-07-22T10:02:04.871Z,8020
2017-07-22T10:03:14.837Z,8940
2017-07-22T10:04:25.114Z,8552
2017-07-22T10:05:35.389Z,7148
2017-07-22T10:06:45.666Z,6012
2017-07-22T10:07:55.938Z,5688
2017-07-22T10:09:06.219Z,5652
2017-07-22T10:10:16.188Z,5728
2017-07-22T10:11:26.471Z,5636
2017-07-22T10:12:36.748Z,6112
2017-07-22T10:13:47.021Z,6656
2017-07-22T10:14:57.302Z,6400
2017-07-22T10:16:06.946Z,5876
2017-07-22T10:17:16.591Z,6052
2017-07-22T10:18:26.869Z,6900
2017-07-22T10:19:37.152Z,7976
2017-07-22T10:20:47.119Z,8260
2017-07-22T10:21:57.387Z,7936
2017-07-22T10:23:07.659Z,6944
2017-07-22T10:24:17.622Z,5968
2017-07-22T10:25:27.901Z,5904
2017-07-22T10:26:38.183Z,7008
2017-07-22T10:27:48.472Z,7196
2017-07-22T10:28:58.751Z,7536
2017-07-22T10:30:11.039Z,7976
2017-07-22T10:31:21.308Z,8244
2017-07-22T10:32:31.582Z,8424
2017-07-22T10:33:41.566Z,8612
2017-07-22T10:34:51.860Z,8808
2017-07-22T10:36:01.825Z,9156
2017-07-22T10:37:11.789Z,10000
2017-07-22T10:38:22.059Z,11192
2017-07-22T10:39:32.083Z,12448
2017-07-22T10:40:42.445Z,12784
2017-07-22T10:41:52.766Z,13740
2017-07-22T10:43:02.743Z,14948
2017-07-22T10:44:12.701Z,16768
2017-07-22T10:45:22.352Z,16736
2017-07-22T10:46:32.319Z,16256
2017-07-22T10:47:42.597Z,15596
2017-07-22T10:48:52.563Z,14232
2017-07-22T10:50:02.840Z,12604
2017-07-22T10:51:13.121Z,11104
2017-07-22T10:52:23.398Z,9688
2017-07-22T10:53:33.365Z,9616
2017-07-22T10:54:43.645Z,9328
2017-07-22T10:55:53.926Z,9096
2017-07-22T10:57:04.200Z,9316
2017-07-22T10:58:14.479Z,9404
2017-07-22T10:59:24.757Z,10336
2017-07-22T11:00:35.028Z,10432
2017-07-22T11:01:45.313Z,11280
2017-07-22T11:02:55.587Z,11160
2017-07-22T11:04:05.861Z,11348
2017-07-22T11:05:16.150Z,11388
2017-07-22T11:06:26.116Z,10640
2017-07-22T11:07:36.392Z,9584
2017-07-22T11:08:46.674Z,9196
2017-07-22T11:09:56.643Z,8864
2017-07-22T11:11:06.917Z,8888
2017-07-22T11:12:17.202Z,9396
2017-07-22T11:13:27.483Z,10136
2017-07-22T11:14:37.760Z,11732
2017-07-22T11:15:48.034Z,12584
2017-07-22T11:16:58.310Z,12412
2017-07-22T11:18:08.589Z,11504
2017-07-22T11:19:18.869Z,10364
2017-07-22T11:20:29.147Z,10096
2017-07-22T11:21:39.105Z,10108
2017-07-22T11:22:48.754Z,10756
2017-07-22T11:23:59.030Z,11696
2017-07-22T11:25:09.004Z,11852
2017-07-22T11:26:19.302Z,10672
2017-07-22T11:27:29.577Z,10564
2017-07-22T11:28:39.850Z,9744
2017-07-22T11:29:50.153Z,9704
2017-07-22T11:31:00.112Z,10240
2017-07-22T11:32:10.079Z,10788
2017-07-22T11:33:20.383Z,10656
2017-07-22T11:34:30.656Z,11764
2017-07-22T11:35:40.936Z,11976
2017-07-22T11:36:51.213Z,12244
2017-07-22T11:38:01.173Z,13296
2017-07-22T11:39:11.454Z,14088
2017-07-22T11:40:21.726Z,15380
2017-07-22T11:41:32.006Z,16768
2017-07-22T11:42:41.656Z,17440
2017-07-22T11:43:51.930Z,18496
2017-07-22T11:45:02.208Z,19872
2017-07-22T11:46:12.496Z,22464
2017-07-22T11:47:22.775Z,23360
2017-07-22T11:48:33.048Z,21696
2017-07-22T11:49:43.329Z,18656
2017-07-22T11:50:53.612Z,18496
2017-07-22T11:52:03.887Z,17088
2017-07-22T11:53:14.161Z,19488
2017-07-22T11:54:24.438Z,35232
2017-07-22T11:55:34.715Z,94912
2017-07-22T11:56:44.996Z,32512
2017-07-22T11:57:55.275Z,19680
2017-07-22T11:59:05.554Z,17984
2017-07-22T12:00:15.830Z,20992
2017-07-22T12:01:26.106Z,30944
2017-07-22T12:02:36.386Z,87616
2017-07-22T12:03:48.668Z,95648
2017-07-22T12:04:58.947Z,67904
2017-07-22T12:06:08.909Z,25408
2017-07-22T12:07:18.557Z,24192
2017-07-22T12:08:28.516Z,26176
2017-07-22T12:09:38.493Z,27296
2017-07-22T12:10:48.881Z,32256
2017-07-22T12:11:59.161Z,68032
2017-07-22T12:13:09.443Z,78080
2017-07-22T12:14:19.411Z,57536
2017-07-22T12:15:29.687Z,47520
2017-07-22T12:16:39.651Z,48032
2017-07-22T12:17:49.616Z,35616
2017-07-22T12:18:59.897Z,32032
2017-07-22T12:20:09.869Z,32320
2017-07-22T12:21:19.830Z,33216
2017-07-22T12:22:29.796Z,33184
2017-07-22T12:23:40.078Z,37312
2017-07-22T12:24:50.358Z,43296
2017-07-22T12:26:00.636Z,86656
2017-07-22T12:27:10.919Z,69440
2017-07-22T12:28:20.568Z,93920
2017-07-22T12:29:30.538Z,77216
2017-07-22T12:30:40.819Z,45760
2017-07-22T12:31:51.099Z,35360
2017-07-22T12:33:01.384Z,51104
2017-07-22T12:34:11.676Z,33632
2017-07-22T12:35:21.950Z,27264
2017-07-22T12:36:32.235Z,26400
2017-07-22T12:37:42.208Z,25696
2017-07-22T12:38:52.177Z,24896
2017-07-22T12:40:02.455Z,24448
2017-07-22T12:41:12.736Z,24928
2017-07-22T12:42:22.711Z,25280
2017-07-22T12:43:33.002Z,24288
2017-07-22T12:44:43.293Z,22784
2017-07-22T12:45:53.575Z,22400
2017-07-22T12:47:03.538Z,22944
2017-07-22T12:48:13.182Z,24608
2017-07-22T12:49:23.461Z,26240
2017-07-22T12:50:33.747Z,27296
2017-07-22T12:51:44.026Z,26176
2017-07-22T12:52:53.988Z,24320
2017-07-22T12:54:04.267Z,22848
2017-07-22T12:55:14.231Z,22080
2017-07-22T12:56:24.513Z,22112
2017-07-22T12:57:34.477Z,22656
2017-07-22T12:58:44.457Z,23232
2017-07-22T12:59:54.738Z,23520
2017-07-22T13:01:05.019Z,23872
2017-07-22T13:02:14.997Z,24096
2017-07-22T13:03:25.275Z,23904
2017-07-22T13:04:35.560Z,23520
2017-07-22T13:05:45.526Z,23712
2017-07-22T13:06:55.801Z,24832
2017-07-22T13:08:06.080Z,26752
2017-07-22T13:09:16.043Z,29184
2017-07-22T13:10:26.332Z,31008
2017-07-22T13:11:36.297Z,32832
2017-07-22T13:12:46.573Z,53728
2017-07-22T13:13:56.854Z,65792
2017-07-22T13:15:07.139Z,39552
2017-07-22T13:16:17.414Z,75264
2017-07-22T13:17:27.691Z,40448
2017-07-22T13:18:37.966Z,33824
2017-07-22T13:19:48.250Z,28480
2017-07-22T13:20:58.551Z,40064
2017-07-22T13:22:08.829Z,36864
2017-07-22T13:23:19.110Z,60224
2017-07-22T13:24:29.391Z,39360
2017-07-22T13:25:39.683Z,34336
2017-07-22T13:26:49.967Z,76576
2017-07-22T13:28:00.250Z,97536
2017-07-22T13:29:10.544Z,99232
2017-07-22T13:30:20.510Z,96576
2017-07-22T13:31:30.474Z,89600
2017-07-22T13:32:40.756Z,89088
2017-07-22T13:33:51.044Z,87840
2017-07-22T13:35:01.322Z,97152
2017-07-22T13:36:11.610Z,101952
2017-07-22T13:37:21.902Z,96032
2017-07-22T13:38:31.881Z,90144
2017-07-22T13:39:41.870Z,89024
2017-07-22T13:40:52.155Z,87072
2017-07-22T13:42:02.436Z,86944
2017-07-22T13:43:12.715Z,83776
2017-07-22T13:44:23.002Z,87840
2017-07-22T13:45:33.287Z,84832
2017-07-22T13:46:42.950Z,84384
2017-07-22T13:47:53.247Z,88928
2017-07-22T13:49:03.239Z,92544
2017-07-22T13:50:12.895Z,89952
2017-07-22T13:51:23.194Z,87360
2017-07-22T13:52:33.489Z,88064
2017-07-22T13:53:43.768Z,86560
2017-07-22T13:54:54.078Z,84768
2017-07-22T13:56:04.364Z,88384
2017-07-22T13:57:14.046Z,72896
2017-07-22T13:58:24.333Z,94144
2017-07-22T13:59:34.614Z,94080
2017-07-22T14:00:44.903Z,93920
2017-07-22T14:01:55.186Z,88096
2017-07-22T14:03:05.162Z,85952
2017-07-22T14:04:15.454Z,85248
2017-07-22T14:05:25.735Z,85376
2017-07-22T14:06:36.030Z,89632
2017-07-22T14:07:46.313Z,88544
2017-07-22T14:08:56.618Z,88480
2017-07-22T14:10:06.588Z,89376
2017-07-22T14:11:16.876Z,87680
2017-07-22T14:12:27.160Z,84672
2017-07-22T14:13:37.471Z,87360
2017-07-22T14:14:47.760Z,86272
2017-07-22T14:15:58.045Z,84512
2017-07-22T14:17:08.333Z,82400
2017-07-22T14:18:18.626Z,84576
2017-07-22T14:19:28.914Z,82944
2017-07-22T14:20:38.887Z,85600
2017-07-22T14:21:49.174Z,86080
2017-07-22T14:22:59.479Z,85472
2017-07-22T14:24:09.766Z,86848
2017-07-22T14:25:19.742Z,86080
2017-07-22T14:26:30.041Z,84448
2017-07-22T14:27:40.325Z,79456
2017-07-22T14:28:50.614Z,78592
2017-07-22T14:30:00.590Z,74496
2017-07-22T14:31:10.881Z,75904
2017-07-22T14:32:20.853Z,76576
2017-07-22T14:33:31.138Z,69088
2017-07-22T14:34:41.422Z,70080
2017-07-22T14:35:51.716Z,77792
2017-07-22T14:37:02.007Z,83200
2017-07-22T14:38:12.297Z,75872
2017-07-22T14:39:22.577Z,64352
2017-07-22T14:40:32.551Z,57184
2017-07-22T14:41:42.838Z,57856
2017-07-22T14:42:52.812Z,56992
2017-07-22T14:44:02.795Z,34880
2017-07-22T14:45:12.454Z,31968
2017-07-22T14:46:22.742Z,43488
2017-07-22T14:47:32.718Z,53056
2017-07-22T14:48:42.379Z,56416
2017-07-22T14:49:52.672Z,60352
2017-07-22T14:51:02.642Z,62976
2017-07-22T14:52:12.929Z,58784
2017-07-22T14:53:25.223Z,62848
2017-07-22T14:54:35.518Z,69216
2017-07-22T14:55:45.491Z,81632
2017-07-22T14:56:55.470Z,85312
2017-07-22T14:58:05.766Z,83360
2017-07-22T14:59:15.429Z,76192
2017-07-22T15:00:25.729Z,60416
2017-07-22T15:01:36.021Z,74816
2017-07-22T15:02:46.000Z,83360
2017-07-22T15:03:56.301Z,84576
2017-07-22T15:05:06.597Z,80832
2017-07-22T15:06:16.897Z,76512
2017-07-22T15:07:26.557Z,67392
2017-07-22T15:08:36.846Z,62880
2017-07-22T15:09:47.166Z,70336
2017-07-22T15:10:57.451Z,72352
2017-07-22T15:12:07.430Z,84448
2017-07-22T15:13:17.407Z,73248
2017-07-22T15:14:27.695Z,73568
2017-07-22T15:15:37.989Z,77632
2017-07-22T15:16:48.283Z,71872
2017-07-22T15:17:58.566Z,55936
2017-07-22T15:19:08.856Z,78432
2017-07-22T15:20:18.830Z,71776
2017-07-22T15:21:29.115Z,58688
2017-07-22T15:22:41.759Z,58112
2017-07-22T15:23:52.050Z,81888
2017-07-22T15:25:01.713Z,76544
2017-07-22T15:26:11.687Z,79200
2017-07-22T15:27:21.979Z,66784
2017-07-22T15:28:32.268Z,66464
2017-07-22T15:29:42.555Z,80256
2017-07-22T15:30:52.209Z,80544
2017-07-22T15:32:02.505Z,80384
2017-07-22T15:33:12.799Z,80352
2017-07-22T15:34:23.088Z,82400
2017-07-22T15:35:33.377Z,77248
2017-07-22T15:36:43.680Z,73664
2017-07-22T15:37:53.972Z,68160
2017-07-22T15:39:04.254Z,67200